Time;durP1;ratioP1;P1;durP2;ratioP2;P2;SDS_P1;SDS_P2;PMS_P1;PMS_P2;Temp;Humidity;BMP_temperature;BMP_pressure;BME280_temperature;BME280_humidity;BME280_pressure;Samples;Min_cycle;Max_cycle;Signal;HPM_P1;HPM_P2
2023/09/18 00:01:04;;;;;;;2.20;2.20;;;;;;;21.07;79.61;97497.84;4985138;28;20591;-72
2023/09/18 00:03:30;;;;;;;2.30;2.30;;;;;;;20.79;80.13;97464.47;4985515;28;20175;-73
2023/09/18 00:05:58;;;;;;;2.00;2.00;;;;;;;20.90;80.48;97459.47;4985071;28;20074;-72
2023/09/18 00:08:25;;;;;;;2.10;2.10;;;;;;;21.19;79.05;97502.88;4983890;28;20670;-73
2023/09/18 00:10:54;;;;;;;2.10;2.10;;;;;;;21.29;77.48;97501.91;4984062;28;20137;-70
2023/09/18 00:13:22;;;;;;;2.00;2.00;;;;;;;21.23;77.81;97506.41;4984848;28;20450;-71
2023/09/18 00:15:48;;;;;;;2.00;2.00;;;;;;;21.14;77.96;97480.81;4985244;28;20058;-71
2023/09/18 00:18:16;;;;;;;2.15;2.15;;;;;;;21.27;79.46;97495.09;4985029;28;20085;-71
2023/09/18 00:20:43;;;;;;;2.28;2.28;;;;;;;21.30;79.95;97494.22;4983398;28;20061;-71
2023/09/18 00:23:10;;;;;;;2.20;2.20;;;;;;;21.33;79.63;97499.00;4984926;28;20062;-72
2023/09/18 00:25:37;;;;;;;2.15;2.15;;;;;;;21.31;79.62;97502.25;4984328;28;20060;-71
2023/09/18 00:28:04;;;;;;;2.13;2.13;;;;;;;21.19;81.04;97499.25;4983876;28;20118;-71
2023/09/18 00:30:31;;;;;;;2.17;2.17;;;;;;;20.91;81.65;97461.84;4983720;28;20058;-71
2023/09/18 00:32:57;;;;;;;2.08;2.08;;;;;;;21.13;82.14;97498.97;4983771;28;20050;-71
2023/09/18 00:35:25;;;;;;;2.15;2.15;;;;;;;21.15;81.76;97499.31;4983732;28;20054;-71
2023/09/18 00:37:51;;;;;;;2.38;2.38;;;;;;;21.14;81.07;97496.94;4984942;28;20474;-70
2023/09/18 00:40:19;;;;;;;2.05;2.05;;;;;;;21.19;80.81;97497.25;4983163;28;20694;-71
2023/09/18 00:42:45;;;;;;;1.98;1.98;;;;;;;21.13;80.73;97487.69;4983521;28;20081;-70
2023/09/18 00:45:12;;;;;;;1.98;1.98;;;;;;;21.15;80.42;97492.91;4984432;28;20050;-70
2023/09/18 00:47:39;;;;;;;2.22;2.22;;;;;;;21.15;80.64;97485.22;4984306;28;20054;-70
2023/09/18 00:50:09;;;;;;;2.10;2.10;;;;;;;20.91;80.04;97449.81;4983126;28;20046;-71
2023/09/18 00:52:38;;;;;;;2.20;2.20;;;;;;;20.89;79.94;97463.53;4984481;28;20524;-70
2023/09/18 00:55:06;;;;;;;2.00;2.00;;;;;;;21.07;80.78;97480.94;4984737;28;20050;-71
2023/09/18 00:57:34;;;;;;;2.08;2.08;;;;;;;21.10;80.66;97480.09;4984878;28;20050;-71
2023/09/18 01:00:04;;;;;;;1.98;1.98;;;;;;;21.11;80.42;97484.50;4984255;28;20528;-69
2023/09/18 01:02:31;;;;;;;2.17;2.17;;;;;;;21.16;79.63;97489.66;4983751;28;20469;-70
2023/09/18 01:04:58;;;;;;;2.08;2.08;;;;;;;21.12;81.84;97482.50;4983111;28;20058;-71
2023/09/18 01:07:25;;;;;;;2.10;2.10;;;;;;;20.85;83.85;97465.59;4984320;28;20472;-70
2023/09/18 01:09:55;;;;;;;2.40;2.30;;;;;;;20.98;84.73;97477.88;4984612;28;20133;-70
2023/09/18 01:12:44;;;;;;;2.22;2.22;;;;;;;20.84;85.26;97466.81;4983536;28;20054;-71
2023/09/18 01:15:19;;;;;;;1.92;1.92;;;;;;;20.91;85.57;97478.75;4988295;28;20058;-70
2023/09/18 01:17:47;;;;;;;1.92;1.92;;;;;;;20.68;85.47;97430.06;4983078;28;20307;-71
2023/09/18 01:20:14;;;;;;;2.05;2.05;;;;;;;20.85;86.17;97468.41;4984427;28;20051;-71
2023/09/18 01:22:41;;;;;;;2.00;2.00;;;;;;;20.89;86.21;97480.41;4980397;28;20133;-71
2023/09/18 01:25:07;;;;;;;1.77;1.77;;;;;;;20.83;86.77;97484.94;4993162;28;20639;-70
2023/09/18 01:27:34;;;;;;;2.20;2.20;;;;;;;20.49;87.12;97434.41;4984307;28;20556;-71
2023/09/18 01:30:01;;;;;;;2.15;2.15;;;;;;;20.30;86.46;97397.72;4984642;28;20058;-70
2023/09/18 01:32:31;;;;;;;2.17;2.17;;;;;;;20.83;86.40;97470.88;4984570;28;20056;-71
2023/09/18 01:35:02;;;;;;;2.20;2.20;;;;;;;20.79;87.05;97461.66;4984742;28;20046;-70
2023/09/18 01:37:31;;;;;;;1.88;1.88;;;;;;;20.26;86.19;97392.16;4988676;28;20149;-71
2023/09/18 01:39:59;;;;;;;1.90;1.90;;;;;;;19.97;85.15;97328.28;4988035;28;20167;-70
2023/09/18 01:42:27;;;;;;;2.10;2.10;;;;;;;20.53;84.28;97423.09;4988322;28;20042;-70
2023/09/18 01:44:55;;;;;;;1.88;1.88;;;;;;;20.73;84.38;97471.81;4988051;28;20245;-71
2023/09/18 01:47:26;;;;;;;2.10;2.10;;;;;;;20.44;84.36;97442.50;4987772;28;20062;-70
2023/09/18 01:49:53;;;;;;;2.00;2.00;;;;;;;20.36;84.24;97424.19;4986623;28;20136;-71
2023/09/18 01:52:20;;;;;;;2.20;2.20;;;;;;;20.12;83.79;97371.84;4986252;28;20090;-71
2023/09/18 01:54:47;;;;;;;2.20;2.20;;;;;;;20.82;83.51;97514.31;4987774;28;20497;-69
2023/09/18 01:57:14;;;;;;;2.00;2.00;;;;;;;20.53;83.25;97434.34;4987622;28;20073;-72
2023/09/18 01:59:41;;;;;;;2.05;2.05;;;;;;;20.56;82.85;97441.94;4987405;28;20148;-70
2023/09/18 02:02:09;;;;;;;1.90;1.90;;;;;;;20.19;83.02;97380.19;4987180;28;20537;-70
2023/09/18 02:04:47;;;;;;;2.22;2.22;;;;;;;20.78;83.36;97474.97;4986428;28;20054;-70
2023/09/18 02:07:33;;;;;;;2.15;2.15;;;;;;;20.62;84.71;97474.81;4987902;28;20058;-71
2023/09/18 02:09:59;;;;;;;2.08;2.08;;;;;;;20.57;85.35;97464.03;4987876;28;20062;-70
2023/09/18 02:12:26;;;;;;;1.90;1.90;;;;;;;20.24;85.40;97428.34;4987524;28;20058;-70
2023/09/18 02:14:53;;;;;;;1.90;1.90;;;;;;;20.58;85.21;97464.84;4985947;28;20054;-71
2023/09/18 02:17:20;;;;;;;2.00;2.00;;;;;;;20.49;84.77;97470.19;4985988;28;20135;-71
2023/09/18 02:19:47;;;;;;;1.80;1.80;;;;;;;20.56;85.01;97473.72;4987376;28;20552;-70
2023/09/18 02:22:14;;;;;;;2.00;2.00;;;;;;;20.25;84.42;97431.97;4987333;28;20070;-70
2023/09/18 02:24:40;;;;;;;2.17;2.17;;;;;;;20.56;84.70;97472.91;4987414;28;20050;-71
2023/09/18 02:27:07;;;;;;;2.10;2.10;;;;;;;20.62;84.18;97476.84;4985821;28;20061;-70
2023/09/18 02:29:34;;;;;;;2.03;2.03;;;;;;;20.25;84.21;97434.78;4985934;28;20054;-70
2023/09/18 02:32:01;;;;;;;1.85;1.85;;;;;;;20.35;85.10;97470.41;4986033;28;20046;-70
2023/09/18 02:34:27;;;;;;;2.25;2.25;;;;;;;20.03;85.94;97439.09;4985805;28;20050;-70
2023/09/18 02:36:54;;;;;;;2.20;2.20;;;;;;;20.22;85.48;97447.69;4985474;28;20050;-70
2023/09/18 02:39:21;;;;;;;2.05;2.05;;;;;;;20.39;85.23;97479.59;4987213;28;20062;-70
2023/09/18 02:41:48;;;;;;;2.03;2.03;;;;;;;20.43;85.31;97469.88;4986999;28;20073;-71
2023/09/18 02:44:14;;;;;;;1.85;1.85;;;;;;;20.42;85.54;97473.13;4987213;28;20137;-70
2023/09/18 02:46:43;;;;;;;1.90;1.90;;;;;;;20.41;85.28;97472.31;4986336;28;20050;-71
2023/09/18 02:49:10;;;;;;;1.80;1.80;;;;;;;20.48;84.90;97477.06;4986720;28;20619;-70
2023/09/18 02:51:36;;;;;;;1.90;1.90;;;;;;;19.97;84.96;97390.94;4985090;28;20376;-70
2023/09/18 02:54:03;;;;;;;1.70;1.70;;;;;;;20.54;84.49;97475.34;4969616;28;20457;-70
2023/09/18 02:56:30;;;;;;;1.92;1.92;;;;;;;20.31;84.97;97455.59;4965948;28;20057;-70
2023/09/18 02:58:57;;;;;;;2.33;2.30;;;;;;;20.34;84.60;97466.00;4967055;28;20614;-71
2023/09/18 03:01:23;;;;;;;1.90;1.90;;;;;;;20.10;84.31;97411.66;4966883;28;20054;-71
2023/09/18 03:03:50;;;;;;;2.05;2.05;;;;;;;19.88;84.27;97421.63;4967255;28;20064;-71
2023/09/18 03:06:17;;;;;;;1.95;1.95;;;;;;;20.50;84.31;97485.88;4967420;28;20544;-71
2023/09/18 03:08:43;;;;;;;2.00;2.00;;;;;;;20.47;84.71;97475.47;4965824;28;20062;-69
2023/09/18 03:11:12;;;;;;;2.05;2.05;;;;;;;20.51;84.54;97476.19;4967034;28;20074;-70
2023/09/18 03:13:47;;;;;;;1.90;1.90;;;;;;;20.26;85.25;97458.88;4966530;28;20050;-71
2023/09/18 03:16:14;;;;;;;1.83;1.83;;;;;;;20.16;85.47;97454.19;4967254;28;20146;-71
2023/09/18 03:18:41;;;;;;;2.00;2.00;;;;;;;20.35;85.22;97474.03;4966769;28;20062;-71
2023/09/18 03:21:08;;;;;;;2.05;2.05;;;;;;;20.38;85.20;97478.00;4965338;28;20059;-70
2023/09/18 03:23:35;;;;;;;1.80;1.80;;;;;;;19.84;85.61;97408.81;4965492;28;20130;-70
2023/09/18 03:26:02;;;;;;;2.00;2.00;;;;;;;20.21;85.99;97476.22;4974060;28;20088;-71
2023/09/18 03:28:29;;;;;;;1.98;1.98;;;;;;;20.22;86.22;97481.44;4979749;28;20054;-71
2023/09/18 03:30:57;;;;;;;2.00;2.00;;;;;;;20.00;87.13;97484.91;4966853;28;20051;-70
2023/09/18 03:33:24;;;;;;;1.70;1.70;;;;;;;20.00;87.58;97484.91;4966763;28;20086;-70
2023/09/18 03:35:54;;;;;;;1.90;1.90;;;;;;;19.42;87.38;97388.47;4966987;28;20406;-70
2023/09/18 03:38:22;;;;;;;1.73;1.73;;;;;;;19.66;87.03;97422.31;4965092;28;20054;-69
2023/09/18 03:40:49;;;;;;;1.77;1.77;;;;;;;19.81;87.45;97471.50;4966232;28;20492;-71
2023/09/18 03:43:16;;;;;;;1.77;1.77;;;;;;;19.30;88.34;97414.28;4966314;28;20050;-70
2023/09/18 03:45:43;;;;;;;1.90;1.90;;;;;;;19.85;88.39;97477.88;4966318;28;20418;-70
2023/09/18 03:48:10;;;;;;;1.90;1.90;;;;;;;19.82;88.70;97478.72;4965899;28;20055;-69
2023/09/18 03:50:38;;;;;;;1.83;1.83;;;;;;;18.42;88.95;97268.44;4966356;28;20441;-69
2023/09/18 03:53:06;;;;;;;1.70;1.70;;;;;;;19.69;89.21;97508.59;4966583;28;20588;-68
2023/09/18 03:55:33;;;;;;;1.80;1.80;;;;;;;19.71;89.04;97478.06;4966407;28;20065;-70
2023/09/18 03:58:00;;;;;;;1.90;1.90;;;;;;;19.52;89.93;97485.13;4966020;28;20054;-71
2023/09/18 04:00:27;;;;;;;1.60;1.60;;;;;;;19.46;90.42;97489.56;4966416;28;20541;-70
2023/09/18 04:02:53;;;;;;;1.80;1.80;;;;;;;18.71;90.67;97376.38;4966222;28;20129;-71
2023/09/18 04:05:21;;;;;;;1.73;1.73;;;;;;;19.30;91.19;97470.47;4964765;28;20509;-71
2023/09/18 04:07:47;;;;;;;1.80;1.80;;;;;;;19.16;91.04;97448.13;4966344;28;20058;-71
2023/09/18 04:10:22;;;;;;;1.90;1.90;;;;;;;19.44;91.31;97492.81;4964464;28;20438;-71
2023/09/18 04:12:50;;;;;;;1.73;1.73;;;;;;;19.37;91.45;97492.91;4965971;28;20086;-71
2023/09/18 04:15:18;;;;;;;1.63;1.63;;;;;;;19.38;91.78;97483.25;4965913;28;20054;-72
2023/09/18 04:17:45;;;;;;;1.80;1.80;;;;;;;19.38;91.49;97494.47;4965756;28;20106;-71
2023/09/18 04:20:13;;;;;;;1.83;1.83;;;;;;;19.37;92.20;97486.47;4571811;28;10001197;-72
2023/09/18 04:22:51;;;;;;;1.90;1.90;;;;;;;19.30;92.19;97476.09;4967431;28;20082;-72
2023/09/18 04:25:19;;;;;;;2.00;2.00;;;;;;;18.77;91.68;97419.63;4965727;28;20501;-71
2023/09/18 04:27:49;;;;;;;1.85;1.85;;;;;;;19.59;91.29;97487.81;4952637;28;20076;-71
2023/09/18 04:30:19;;;;;;;2.05;2.05;;;;;;;19.60;90.43;97477.41;4965632;28;20166;-71
2023/09/18 04:32:46;;;;;;;1.80;1.80;;;;;;;19.72;90.28;97493.72;4965570;28;20050;-71
2023/09/18 04:35:13;;;;;;;1.90;1.90;;;;;;;19.33;89.68;97410.63;4964015;28;20409;-72
2023/09/18 04:37:40;;;;;;;1.83;1.83;;;;;;;18.97;90.37;97361.66;4965143;28;20514;-73
2023/09/18 04:40:11;;;;;;;2.00;2.00;;;;;;;19.88;89.92;97485.47;4982137;28;20089;-62
2023/09/18 04:42:39;;;;;;;1.80;1.80;;;;;;;19.57;90.80;97438.88;4970290;28;20094;-66
2023/09/18 04:45:06;;;;;;;1.92;1.92;;;;;;;19.88;90.59;97475.03;4963755;28;20144;-67
2023/09/18 04:47:33;;;;;;;2.00;2.00;;;;;;;19.72;87.82;97462.78;4965299;28;20062;-65
2023/09/18 04:50:00;;;;;;;1.95;1.95;;;;;;;19.61;87.89;97439.63;4965038;28;20589;-67
2023/09/18 04:52:27;;;;;;;2.10;2.10;;;;;;;20.03;87.69;97495.34;4965531;28;20138;-66
2023/09/18 04:54:54;;;;;;;1.83;1.83;;;;;;;20.07;86.38;97487.66;4983287;28;20055;-67
2023/09/18 04:57:22;;;;;;;2.05;2.05;;;;;;;20.06;85.67;97467.16;4984463;28;20137;-67
2023/09/18 04:59:49;;;;;;;1.80;1.80;;;;;;;20.19;85.54;97489.91;4984623;28;20058;-68
2023/09/18 05:02:35;;;;;;;1.92;1.92;;;;;;;19.76;86.13;97441.06;4983678;28;20058;-70
2023/09/18 05:05:03;;;;;;;2.00;2.00;;;;;;;20.19;85.69;97487.09;4983160;28;20054;-68
2023/09/18 05:07:31;;;;;;;1.90;1.90;;;;;;;20.29;85.29;97489.00;4984586;28;20153;-67
2023/09/18 05:09:58;;;;;;;2.00;2.00;;;;;;;20.33;84.32;97481.28;4983693;28;20061;-68
2023/09/18 05:12:24;;;;;;;2.13;2.13;;;;;;;20.34;84.73;97485.69;4983393;28;20054;-67
2023/09/18 05:14:51;;;;;;;2.03;2.03;;;;;;;20.38;84.08;97489.25;4984447;28;20482;-68
2023/09/18 05:17:18;;;;;;;2.00;2.00;;;;;;;20.49;83.54;97489.91;4984290;28;20052;-67
2023/09/18 05:19:45;;;;;;;1.95;1.95;;;;;;;20.44;83.66;97487.53;4984714;28;20092;-67
2023/09/18 05:22:12;;;;;;;2.10;2.10;;;;;;;20.67;83.29;97490.44;4984249;28;20085;-68
2023/09/18 05:24:39;;;;;;;2.03;2.03;;;;;;;20.49;82.87;97467.38;4984027;28;20046;-67
2023/09/18 05:27:07;;;;;;;2.30;2.30;;;;;;;20.69;82.77;97500.03;4984148;28;20490;-67
2023/09/18 05:29:36;;;;;;;2.08;2.08;;;;;;;20.82;81.84;97491.78;4984180;28;20086;-68
2023/09/18 05:32:03;;;;;;;2.10;2.10;;;;;;;20.80;81.85;97494.25;4984187;28;20073;-67
2023/09/18 05:34:31;;;;;;;2.20;2.20;;;;;;;20.98;81.32;97489.16;4984157;28;20077;-67
2023/09/18 05:36:58;;;;;;;2.10;2.10;;;;;;;21.04;80.03;97481.78;4983861;28;20145;-67
2023/09/18 05:39:25;;;;;;;2.10;2.10;;;;;;;21.13;79.53;97496.16;4983867;28;20081;-68
2023/09/18 05:41:51;;;;;;;2.20;2.20;;;;;;;21.13;79.43;97478.44;4984063;28;20058;-67
2023/09/18 05:44:18;;;;;;;2.20;2.20;;;;;;;21.39;79.06;97498.09;4984082;28;20070;-68
2023/09/18 05:46:46;;;;;;;2.47;2.38;;;;;;;19.13;77.33;97128.78;4973935;28;20049;-65
2023/09/18 05:49:12;;;;;;;2.20;2.20;;;;;;;21.47;77.31;97502.38;4981199;28;20050;-61
2023/09/18 05:51:39;;;;;;;2.45;2.38;;;;;;;21.42;78.25;97502.84;4982042;28;20070;-67
2023/09/18 05:54:06;;;;;;;2.30;2.30;;;;;;;21.38;79.65;97506.97;4977225;28;20050;-63
2023/09/18 05:56:33;;;;;;;2.20;2.20;;;;;;;20.80;78.40;97392.88;4970163;28;20046;-68
2023/09/18 05:59:00;;;;;;;2.20;2.20;;;;;;;21.64;78.61;97501.22;4982682;28;20061;-64
2023/09/18 06:01:27;;;;;;;2.30;2.30;;;;;;;20.61;79.91;97385.16;4982922;28;20517;-68
2023/09/18 06:03:55;;;;;;;2.10;2.10;;;;;;;20.81;80.90;97450.78;4981866;28;20543;-67
2023/09/18 06:06:22;;;;;;;1.88;1.88;;;;;;;21.32;78.83;97475.69;4980842;28;20140;-63
2023/09/18 06:08:49;;;;;;;2.25;2.25;;;;;;;21.15;78.41;97414.78;4982871;28;20078;-65
2023/09/18 06:11:17;;;;;;;2.20;2.20;;;;;;;21.87;77.61;97492.75;4974708;28;20043;-64
2023/09/18 06:13:44;;;;;;;2.20;2.20;;;;;;;21.90;75.71;97497.53;4976087;28;20054;-62
2023/09/18 06:16:11;;;;;;;2.20;2.20;;;;;;;21.31;76.33;97423.34;4979270;28;20042;-62
2023/09/18 06:18:38;;;;;;;2.40;2.30;;;;;;;21.65;73.53;97440.81;4980291;28;20050;-62
2023/09/18 06:21:05;;;;;;;2.45;2.35;;;;;;;22.21;73.40;97456.53;4983057;28;20047;-62
2023/09/18 06:23:33;;;;;;;2.40;2.33;;;;;;;22.21;72.96;97506.53;4981778;28;20801;-69
2023/09/18 06:25:59;;;;;;;2.67;2.58;;;;;;;22.14;72.09;97422.84;4974940;28;20058;-68
2023/09/18 06:28:26;;;;;;;2.53;2.42;;;;;;;22.42;69.38;97430.66;4985863;28;20055;-64
2023/09/18 06:30:54;;;;;;;2.67;2.58;;;;;;;23.07;69.20;97504.19;4979483;28;20082;-67
2023/09/18 06:33:21;;;;;;;2.88;2.78;;;;;;;23.13;67.80;97485.44;4984400;28;20054;-65
2023/09/18 06:35:48;;;;;;;2.90;2.80;;;;;;;23.16;66.82;97428.03;4985818;28;20441;-69
2023/09/18 06:38:15;;;;;;;2.75;2.65;;;;;;;23.60;67.33;97509.31;4970581;28;20046;-63
2023/09/18 06:40:42;;;;;;;2.72;2.63;;;;;;;22.76;68.01;97463.38;4986729;28;20050;-65
2023/09/18 06:43:09;;;;;;;2.72;2.63;;;;;;;22.67;69.74;97506.34;4986960;28;20054;-63
2023/09/18 06:45:37;;;;;;;3.08;2.97;;;;;;;22.90;67.48;97466.66;4986056;28;20089;-63
2023/09/18 06:48:05;;;;;;;2.90;2.80;;;;;;;22.29;67.42;97335.78;4984093;28;20069;-71
2023/09/18 06:50:32;;;;;;;2.70;2.60;;;;;;;23.40;66.39;97505.78;4985671;28;20051;-59
2023/09/18 06:52:58;;;;;;;2.92;2.83;;;;;;;22.82;65.34;97424.88;4984082;28;20078;-60
2023/09/18 06:55:25;;;;;;;2.58;2.47;;;;;;;23.32;65.31;97522.16;4984674;28;20054;-66
2023/09/18 06:57:53;;;;;;;2.90;2.80;;;;;;;23.67;61.59;97517.59;4985916;28;20046;-62
2023/09/18 07:00:20;;;;;;;3.10;3.00;;;;;;;23.82;59.59;97516.75;4985891;28;20052;-64
2023/09/18 07:02:49;;;;;;;2.97;2.88;;;;;;;23.75;58.75;97494.31;4984406;28;20081;-70
2023/09/18 07:05:16;;;;;;;2.85;2.75;;;;;;;24.04;57.86;97517.00;4985396;28;20062;-62
2023/09/18 07:07:43;;;;;;;3.17;3.08;;;;;;;24.37;57.57;97500.66;4979554;28;20145;-67
2023/09/18 07:10:10;;;;;;;2.97;2.88;;;;;;;23.62;58.33;97444.56;4983435;28;20741;-71
2023/09/18 07:12:37;;;;;;;3.10;3.00;;;;;;;23.83;59.13;97490.06;4983305;28;20058;-64
2023/09/18 07:15:05;;;;;;;3.20;3.10;;;;;;;23.66;59.03;97516.00;4986021;28;20395;-66
2023/09/18 07:17:35;;;;;;;2.90;2.80;;;;;;;22.91;58.84;97434.34;4983074;28;20133;-65
2023/09/18 07:20:13;;;;;;;2.70;2.60;;;;;;;23.03;60.95;97487.31;4985889;28;20058;-63
2023/09/18 07:22:50;;;;;;;2.53;2.42;;;;;;;23.59;59.10;97507.69;4985590;28;20069;-61
2023/09/18 07:25:17;;;;;;;2.55;2.45;;;;;;;23.11;57.90;97426.53;4984613;28;20258;-60
2023/09/18 07:27:44;;;;;;;2.60;2.50;;;;;;;23.18;59.93;97507.53;4984283;28;20053;-62
2023/09/18 07:30:12;;;;;;;2.88;2.78;;;;;;;23.59;59.85;97479.41;4985755;28;20078;-66
2023/09/18 07:32:40;;;;;;;3.13;3.03;;;;;;;23.92;58.61;97438.44;4983706;28;20533;-59
2023/09/18 07:35:08;;;;;;;3.05;2.95;;;;;;;24.22;57.41;97421.00;4985388;28;20065;-61
2023/09/18 07:37:35;;;;;;;3.40;3.30;;;;;;;24.92;53.97;97505.84;4982918;28;20061;-60
2023/09/18 07:40:05;;;;;;;3.00;2.90;;;;;;;24.86;53.41;97490.66;4974542;28;20137;-66
2023/09/18 07:42:32;;;;;;;3.40;3.30;;;;;;;24.29;53.57;97442.63;4978728;28;20060;-61
2023/09/18 07:44:59;;;;;;;3.03;2.92;;;;;;;24.33;52.81;97432.78;4983256;28;20090;-64
2023/09/18 07:47:26;;;;;;;3.10;3.00;;;;;;;24.22;54.28;97482.47;4977666;28;20069;-62
2023/09/18 07:49:54;;;;;;;3.30;3.20;;;;;;;24.54;54.59;97510.66;4966054;28;20058;-64
2023/09/18 07:52:21;;;;;;;3.35;3.25;;;;;;;24.98;53.16;97513.31;4985167;28;20050;-61
2023/09/18 07:54:47;;;;;;;2.97;2.88;;;;;;;25.01;52.54;97569.09;4984913;28;20050;-62
2023/09/18 07:57:15;;;;;;;3.33;3.22;;;;;;;25.00;51.90;97519.34;4977099;28;20051;-58
2023/09/18 07:59:42;;;;;;;3.03;2.92;;;;;;;24.94;53.19;97557.97;4965829;28;20055;-62
2023/09/18 08:02:09;;;;;;;3.42;3.33;;;;;;;25.06;53.70;97509.00;4975913;28;20433;-61
2023/09/18 08:04:36;;;;;;;3.50;3.40;;;;;;;25.12;53.15;97526.22;4978635;28;20078;-62
2023/09/18 08:07:05;;;;;;;3.20;3.10;;;;;;;24.66;54.49;97519.19;4976071;28;20114;-60
2023/09/18 08:09:36;;;;;;;3.53;3.42;;;;;;;24.42;56.59;97519.94;4985282;28;21140;-67
2023/09/18 08:12:03;;;;;;;3.15;3.05;;;;;;;24.52;57.04;97496.94;4983592;28;20085;-65
2023/09/18 08:14:30;;;;;;;3.58;3.47;;;;;;;23.86;57.95;97482.69;4982210;28;20129;-59
2023/09/18 08:16:58;;;;;;;3.25;3.15;;;;;;;24.28;58.17;97506.97;4979692;28;20065;-65
2023/09/18 08:19:28;;;;;;;3.40;3.30;;;;;;;23.79;57.70;97426.28;4964062;28;20161;-61
2023/09/18 08:21:56;;;;;;;3.22;3.13;;;;;;;24.18;57.68;97481.81;4974373;28;20085;-62
2023/09/18 08:24:23;;;;;;;3.25;3.15;;;;;;;24.59;55.94;97476.91;4984547;28;20485;-69
2023/09/18 08:26:49;;;;;;;3.03;2.92;;;;;;;24.94;55.79;97495.59;4982071;28;20042;-62
2023/09/18 08:29:17;;;;;;;3.50;3.40;;;;;;;25.21;54.89;97493.09;4984505;28;20480;-60
2023/09/18 08:31:44;;;;;;;3.42;3.33;;;;;;;25.38;54.29;97490.94;4983393;28;20081;-62
2023/09/18 08:34:11;;;;;;;3.83;3.72;;;;;;;25.34;53.62;97427.09;4984653;28;20076;-61
2023/09/18 08:36:38;;;;;;;3.70;3.60;;;;;;;25.88;52.66;97484.28;4983676;28;20057;-64
2023/09/18 08:39:05;;;;;;;3.85;3.75;;;;;;;25.27;52.26;97383.50;4984457;28;20505;-60
2023/09/18 08:41:34;;;;;;;4.00;3.90;;;;;;;26.16;51.11;97480.47;4984271;28;20081;-61
2023/09/18 08:44:03;;;;;;;4.10;4.00;;;;;;;25.72;50.85;97380.25;4982407;28;20093;-65
2023/09/18 08:46:30;;;;;;;4.13;4.03;;;;;;;26.19;50.50;97466.09;4980061;28;20038;-68
2023/09/18 08:49:00;;;;;;;3.58;3.47;;;;;;;26.01;50.93;97448.16;4976096;28;20062;-64
2023/09/18 08:51:28;;;;;;;3.78;3.67;;;;;;;26.02;49.12;97461.88;4998352;28;20129;-61
2023/09/18 08:53:56;;;;;;;4.03;3.92;;;;;;;23.85;50.88;97212.28;4983774;28;20054;-61
2023/09/18 08:56:23;;;;;;;3.90;3.80;;;;;;;25.53;50.75;97420.31;4981949;28;20046;-64
2023/09/18 08:58:50;;;;;;;3.55;3.45;;;;;;;25.71;50.75;97458.16;4982616;28;20055;-61
2023/09/18 09:01:17;;;;;;;3.50;3.40;;;;;;;24.74;52.13;97461.03;4982505;28;20512;-60
2023/09/18 09:03:47;;;;;;;3.55;3.45;;;;;;;24.47;53.56;97455.00;4981548;28;20065;-61
2023/09/18 09:06:14;;;;;;;3.53;3.42;;;;;;;24.85;52.48;97453.00;4979028;28;20126;-62
2023/09/18 09:08:41;;;;;;;3.65;3.55;;;;;;;25.32;51.18;97453.81;4987826;28;20050;-66
2023/09/18 09:11:07;;;;;;;3.25;3.15;;;;;;;25.55;51.11;97431.97;4981401;28;20054;-61
2023/09/18 09:13:34;;;;;;;3.42;3.33;;;;;;;25.91;50.12;97443.66;4735838;28;5001654;-67
2023/09/18 09:16:13;;;;;;;3.67;3.58;;;;;;;26.17;50.29;97439.41;4973596;28;20042;-60
2023/09/18 09:18:50;;;;;;;3.72;3.63;;;;;;;26.52;48.54;97438.03;4983882;28;20149;-68
2023/09/18 09:21:18;;;;;;;3.53;3.42;;;;;;;25.59;49.13;97444.00;4982358;28;20053;-62
2023/09/18 09:23:55;;;;;;;3.60;3.50;;;;;;;26.00;48.57;97440.91;4980690;28;20046;-61
2023/09/18 09:26:23;;;;;;;3.63;3.53;;;;;;;26.16;46.73;97438.63;4983196;28;20047;-60
2023/09/18 09:28:50;;;;;;;3.33;3.22;;;;;;;26.19;46.89;97434.09;4981996;28;20488;-60
2023/09/18 09:31:30;;;;;;;3.67;3.58;;;;;;;25.60;48.46;97445.59;4979102;28;20050;-62
2023/09/18 09:33:58;;;;;;;3.40;3.30;;;;;;;25.56;48.43;97410.88;4983634;28;20082;-62
2023/09/18 09:36:26;;;;;;;3.35;3.25;;;;;;;24.17;48.62;97216.94;4978406;28;20109;-62
2023/09/18 09:38:59;;;;;;;3.50;3.40;;;;;;;25.49;48.27;97365.72;4978220;28;20505;-64
2023/09/18 09:41:30;;;;;;;3.50;3.40;;;;;;;26.00;48.20;97436.03;4974301;28;20163;-62
2023/09/18 09:44:00;;;;;;;3.70;3.60;;;;;;;25.77;48.94;97404.41;4982400;28;20136;-61
2023/09/18 09:46:27;;;;;;;3.33;3.22;;;;;;;26.32;47.92;97424.19;4982878;28;20528;-61
2023/09/18 09:49:01;;;;;;;3.72;3.63;;;;;;;26.72;46.40;97424.25;4983175;28;20146;-72
2023/09/18 09:51:29;;;;;;;3.50;3.40;;;;;;;26.82;45.60;97393.81;4982948;28;20057;-60
2023/09/18 09:53:58;;;;;;;3.65;3.55;;;;;;;27.09;45.60;97420.28;4982968;28;20050;-61
2023/09/18 09:56:44;;;;;;;3.85;3.75;;;;;;;27.18;44.70;97462.97;4980995;28;20405;-70
2023/09/18 09:59:13;;;;;;;3.25;3.15;;;;;;;25.57;47.88;97435.16;4985920;28;20142;-71
2023/09/18 10:01:41;;;;;;;3.40;3.30;;;;;;;24.92;48.72;97421.59;4985261;28;20513;-68
2023/09/18 10:04:17;;;;;;;3.60;3.50;;;;;;;25.00;47.72;97352.06;4976431;28;20166;-60
2023/09/18 10:06:49;;;;;;;3.63;3.53;;;;;;;25.35;47.32;97378.41;4987527;28;20125;-66
2023/09/18 10:09:18;;;;;;;3.67;3.58;;;;;;;25.43;47.70;97322.19;4987677;28;20046;-62
2023/09/18 10:11:55;;;;;;;3.45;3.35;;;;;;;26.41;45.95;97409.25;4987258;28;20093;-67
2023/09/18 10:14:34;;;;;;;3.88;3.78;;;;;;;26.59;44.92;97375.22;4987183;28;20138;-67
2023/09/18 10:17:20;;;;;;;3.47;3.38;;;;;;;26.49;43.86;97331.00;4987459;28;20057;-62
2023/09/18 10:20:16;;;;;;;3.83;3.72;;;;;;;27.19;43.83;97410.47;4987538;28;20393;-62
2023/09/18 10:22:46;;;;;;;4.05;3.95;;;;;;;27.61;43.12;97417.22;4987038;28;20054;-65
2023/09/18 10:25:23;;;;;;;4.13;4.03;;;;;;;27.81;41.37;97408.16;4987082;28;20062;-62
2023/09/18 10:28:01;;;;;;;3.78;3.67;;;;;;;27.77;41.70;97385.53;4986741;28;20133;-62
2023/09/18 10:30:32;;;;;;;4.18;4.07;;;;;;;27.69;42.03;97401.41;4987344;28;20058;-63
2023/09/18 10:33:01;;;;;;;3.80;3.70;;;;;;;28.00;41.66;97399.16;4985508;28;20300;-67
2023/09/18 10:35:28;;;;;;;4.05;3.95;;;;;;;28.20;41.24;97400.72;4985920;28;20054;-63
2023/09/18 10:37:57;;;;;;;3.90;3.80;;;;;;;27.62;40.21;97282.13;4985087;28;20050;-65
2023/09/18 10:40:26;;;;;;;4.05;3.95;;;;;;;28.52;40.02;97399.97;4986312;28;20046;-68
2023/09/18 10:42:55;;;;;;;4.00;3.90;;;;;;;28.34;39.72;97343.03;4986402;28;20046;-66
2023/09/18 10:45:22;;;;;;;4.50;4.40;;;;;;;28.36;38.83;97300.59;4986913;28;20054;-66
2023/09/18 10:47:49;;;;;;;4.68;4.57;;;;;;;28.42;38.99;97332.88;4985951;28;20058;-64
2023/09/18 10:50:27;;;;;;;4.30;4.20;;;;;;;28.79;38.46;97362.78;4986513;28;20085;-66
2023/09/18 10:52:58;;;;;;;3.95;3.85;;;;;;;28.52;38.07;97377.19;4985851;28;20082;-62
2023/09/18 10:55:26;;;;;;;4.43;4.32;;;;;;;28.60;38.02;97386.97;4985976;28;20066;-65
2023/09/18 10:57:58;;;;;;;3.72;3.63;;;;;;;27.82;39.88;97386.97;4976951;28;20505;-66
2023/09/18 11:00:27;;;;;;;4.23;4.13;;;;;;;28.28;38.61;97384.84;4967124;28;20491;-64
2023/09/18 11:03:10;;;;;;;4.00;3.90;;;;;;;28.46;38.82;97379.06;4982275;28;20327;-64
2023/09/18 11:05:37;;;;;;;3.88;3.78;;;;;;;26.98;37.81;97106.31;4986313;28;20119;-66
2023/09/18 11:08:26;;;;;;;4.20;4.10;;;;;;;28.99;37.51;97372.34;4964690;28;20061;-63
2023/09/18 11:11:14;;;;;;;4.30;4.20;;;;;;;28.74;36.82;97318.63;4967674;28;20161;-65
2023/09/18 11:13:45;;;;;;;4.22;4.13;;;;;;;28.76;36.73;97358.84;4986466;28;20057;-67
2023/09/18 11:16:26;;;;;;;4.22;4.13;;;;;;;28.63;36.79;97372.53;4986352;28;20865;-67
2023/09/18 11:19:07;;;;;;;4.60;4.50;;;;;;;28.79;36.09;97375.00;4986095;28;20064;-67
2023/09/18 11:21:34;;;;;;;4.30;4.20;;;;;;;28.89;36.24;97361.47;4985981;28;20042;-72
2023/09/18 11:24:16;;;;;;;4.32;4.22;;;;;;;28.65;36.70;97352.09;4985784;28;20054;-66
2023/09/18 11:26:44;;;;;;;4.05;3.95;;;;;;;28.13;37.94;97361.94;4985782;28;20050;-66
2023/09/18 11:29:14;;;;;;;3.95;3.85;;;;;;;28.00;37.69;97372.72;4984321;28;20101;-70
2023/09/18 11:31:45;;;;;;;4.10;4.00;;;;;;;27.99;37.16;97371.97;4981226;28;20480;-66
2023/09/18 11:34:14;;;;;;;4.07;3.97;;;;;;;27.70;37.63;97342.38;4966166;28;20058;-70
2023/09/18 11:36:42;;;;;;;4.30;4.20;;;;;;;27.59;37.23;97374.19;4974316;28;20048;-66
2023/09/18 11:39:11;;;;;;;3.88;3.78;;;;;;;27.35;37.64;97285.00;4985824;28;20492;-66
2023/09/18 11:41:39;;;;;;;4.25;4.15;;;;;;;28.19;36.93;97348.63;4974592;28;20092;-66